Login
Access
Login with your mtb-forum.it nickname and password.


You do not have an account? Sign up here for free

zodiaco981

Last training unit 30/06/2013
0
Followers
3 311 Km
itineraries
22 433 m
of total vertical gain
125
hours of riding
26.28 Km/h
average speed
137
average HR


30/06/2013 Show to everybody Allenamento 30-06-13 alle 11:00 108.32 Km 1299 m 04:27:00 24.34 Km\h Duedipicche
25/06/2013 Show to everybody Allenamento 25-06-13 alle 16:06 48.36 Km 365 m 01:31:06 31.85 Km\h Duedipicche
18/06/2013 Show to everybody Allenamento 18-06-13 alle 16:36 56 Km 362 m 01:56:41 28.8 Km\h Duedipicche
11/05/2013 Show to everybody Allenamento 11-05-13 alle 06:59 100.78 Km 769 m 03:29:30 28.86 Km\h Duedipicche
08/05/2013 Show to everybody Allenamento 08-05-13 alle 15:32 62.71 Km 380 m 01:58:10 31.84 Km\h Duedipicche
03/05/2013 Show to everybody Allenamento 03-05-13 alle 15:54 53.22 Km 375 m 01:39:01 32.25 Km\h Duedipicche
01/05/2013 Show to everybody Allenamento 01-05-13 alle 07:38 21.55 Km 188 m 00:53:01 24.39 Km\h Duedipicche
18/04/2013 Show to everybody Allenamento 18-04-13 alle 11:52 66.3 Km 461 m 02:17:38 28.9 Km\h Duedipicche
18/04/2013 Show to everybody Allenamento 18-04-13 alle 11:52 0.02 Km 0 m 00:00:02 27.63 Km\h Duedipicche
16/04/2013 Show to everybody Allenamento 16-04-13 alle 12:29 2.42 Km 16 m 00:04:44 30.67 Km\h Duedipicche
02/04/2013 Show to everybody Allenamento 02-04-13 alle 16:04 30.96 Km 248 m 01:09:28 26.75 Km\h Duedipicche
31/03/2013 Show to everybody Allenamento 28-03-13 alle 18:13 0.07 Km 0 m 00:00:08 30.11 Km\h Duedipicche
30/10/2012 Show to everybody Allenamento 30-10-12 alle 06:37 45.31 Km 216 m 01:33:27 29.09 Km\h Duedipicche
29/10/2012 Show to everybody Allenamento 29-10-12 alle 16:24 19.33 Km 122 m 00:42:01 27.6 Km\h Duedipicche
24/10/2012 Show to everybody Allenamento 24-10-12 alle 05:44 45.74 Km 208 m 01:38:11 27.95 Km\h Duedipicche
23/10/2012 Show to everybody Allenamento 23-10-12 alle 05:53 47.55 Km 247 m 01:38:26 28.98 Km\h Duedipicche
21/10/2012 Show to everybody Allenamento 21-10-12 alle 06:37 122 Km 864 m 04:09:23 29.35 Km\h Duedipicche
17/10/2012 Show to everybody Allenamento 17-10-12 alle 05:44 45.87 Km 277 m 01:36:17 28.58 Km\h Duedipicche
16/10/2012 Show to everybody Allenamento 16-10-12 alle 05:48 43.19 Km 183 m 01:31:23 28.35 Km\h Duedipicche
10/10/2012 Show to everybody Allenamento 10-10-12 alle 05:46 46.61 Km 209 m 01:33:32 29.9 Km\h Duedipicche
07/10/2012 Show to everybody Allenamento 07-10-12 alle 07:51 27.07 Km 81 m 01:02:46 25.88 Km\h Duedipicche
06/10/2012 Show to everybody Allenamento 06-10-12 alle 07:26 59.96 Km 564 m 02:38:13 22.74 Km\h Duedipicche
05/10/2012 Show to everybody Allenamento 05-10-12 alle 05:35 65.48 Km 523 m 02:15:55 28.91 Km\h Duedipicche
03/10/2012 Show to everybody Allenamento 03-10-12 alle 05:41 45.7 Km 211 m 01:38:19 27.89 Km\h Duedipicche
02/10/2012 Show to everybody Allenamento 02-10-12 alle 05:57 46.14 Km 183 m 01:35:24 29.02 Km\h Duedipicche
28/09/2012 Show to everybody Allenamento 28-09-12 alle 11:28 64.66 Km 624 m 02:38:07 24.54 Km\h Duedipicche
25/09/2012 Show to everybody Allenamento 25-09-12 alle 05:37 44.16 Km 116 m 01:21:13 32.62 Km\h Duedipicche
22/09/2012 Show to everybody Allenamento 22-09-12 alle 09:00 42.7 Km 418 m 01:36:15 26.62 Km\h Duedipicche
20/09/2012 Show to everybody Allenamento 20-09-12 alle 05:42 45.05 Km 232 m 01:30:14 29.95 Km\h Duedipicche
18/09/2012 Show to everybody Allenamento 18-09-12 alle 05:36 45.65 Km 203 m 01:30:14 30.35 Km\h Duedipicche
16/09/2012 Show to everybody Allenamento 16-09-12 alle 07:01 61.28 Km 773 m 02:24:52 25.38 Km\h Duedipicche
15/09/2012 Show to everybody Allenamento 15-09-12 alle 10:57 34.6 Km 1108 m 02:15:47 15.29 Km\h Duedipicche
11/09/2012 Show to everybody Allenamento 11-09-12 alle 05:39 45.5 Km 209 m 01:34:28 28.9 Km\h Duedipicche
10/09/2012 Show to everybody Allenamento 10-09-12 alle 05:36 12.37 Km 45 m 00:25:30 29.1 Km\h Duedipicche
10/09/2012 Show to everybody Allenamento 10-09-12 alle 15:35 22.88 Km 110 m 00:45:59 29.86 Km\h Duedipicche
07/09/2012 Show to everybody Allenamento 07-09-12 alle 05:43 47.5 Km 259 m 01:39:30 28.64 Km\h Duedipicche
06/09/2012 Show to everybody Allenamento 06-09-12 alle 05:12 45.43 Km 225 m 01:22:29 33.05 Km\h Duedipicche
04/09/2012 Show to everybody Allenamento 04-09-12 alle 09:01 38.74 Km 235 m 01:34:51 24.5 Km\h Duedipicche
27/08/2012 Show to everybody Allenamento 27-08-12 alle 14:47 4.71 Km 12 m 00:48:55 5.78 Km\h Duedipicche
23/08/2012 Show to everybody Allenamento 23-08-12 alle 08:04 40.86 Km 513 m 01:45:11 23.31 Km\h Duedipicche
22/08/2012 Show to everybody Allenamento 22-08-12 alle 08:43 46.43 Km 683 m 02:10:26 21.36 Km\h Duedipicche
18/08/2012 Show to everybody Allenamento 18-08-12 alle 08:28 55.12 Km 739 m 02:36:38 21.11 Km\h Duedipicche
17/08/2012 Show to everybody Allenamento 17-08-12 alle 08:47 50.56 Km 671 m 02:16:07 22.29 Km\h Duedipicche
14/08/2012 Show to everybody Allenamento 14-08-12 alle 05:44 45.11 Km 174 m 01:40:33 26.92 Km\h Duedipicche
13/08/2012 Show to everybody Allenamento 13-08-12 alle 05:46 45.45 Km 182 m 01:34:12 28.95 Km\h Duedipicche
12/08/2012 Show to everybody Allenamento 12-08-12 alle 08:31 58.9 Km 401 m 02:06:17 27.98 Km\h Duedipicche
10/08/2012 Show to everybody Allenamento 10-08-12 alle 05:38 46.61 Km 225 m 01:33:34 29.89 Km\h Duedipicche
07/08/2012 Show to everybody Allenamento 07-08-12 alle 05:36 23.09 Km 72 m 00:47:42 29.05 Km\h Duedipicche
07/08/2012 Show to everybody Allenamento 07-08-12 alle 15:59 22.55 Km 119 m 00:52:04 25.99 Km\h Duedipicche
04/08/2012 Show to everybody Allenamento 04-08-12 alle 08:51 57.76 Km 242 m 02:38:15 21.9 Km\h Duedipicche
03/08/2012 Show to everybody Allenamento 03-08-12 alle 05:31 46.03 Km 203 m 01:54:30 24.12 Km\h Duedipicche
02/08/2012 Show to everybody Allenamento 02-08-12 alle 05:39 48.3 Km 185 m 01:49:53 26.37 Km\h Duedipicche
31/07/2012 Show to everybody Allenamento 31-07-12 alle 05:39 67.67 Km 462 m 02:30:23 27 Km\h Duedipicche
30/07/2012 Show to everybody Allenamento 30-07-12 alle 05:28 49.38 Km 211 m 01:45:27 28.1 Km\h Duedipicche
27/07/2012 Show to everybody Allenamento 27-07-12 alle 05:26 56.61 Km 386 m 02:12:45 25.59 Km\h Duedipicche
25/07/2012 Show to everybody Allenamento 25-07-12 alle 05:36 62.34 Km 450 m 02:22:22 26.27 Km\h Duedipicche
25/07/2012 Show to everybody VIGANO\\\` 62.46 Km 450 m 02:22:53 26.23 Km\h Duedipicche
24/07/2012 Show to everybody Allenamento 24-07-12 alle 05:36 57.5 Km 278 m 02:03:32 27.93 Km\h Duedipicche
21/07/2012 Show to everybody Allenamento 21-07-12 alle 10:02 5.14 Km 14 m 00:41:46 7.38 Km\h Duedipicche
17/07/2012 Show to everybody Allenamento 17-07-12 alle 05:27 47.51 Km 210 m 01:51:42 25.52 Km\h Duedipicche
16/07/2012 Show to everybody Allenamento 16-07-12 alle 05:16 51.5 Km 294 m 02:01:48 25.37 Km\h Duedipicche
13/07/2012 Show to everybody Allenamento 13-07-12 alle 05:28 49.97 Km 179 m 01:54:35 26.17 Km\h Duedipicche
12/07/2012 Show to everybody Allenamento 12-07-12 alle 05:35 44.84 Km 184 m 01:42:28 26.26 Km\h Duedipicche
11/07/2012 Show to everybody Allenamento 11-07-12 alle 05:27 54.88 Km 348 m 02:03:10 26.73 Km\h Duedipicche
09/07/2012 Show to everybody Allenamento 09-07-12 alle 05:33 43.86 Km 198 m 01:41:51 25.84 Km\h Duedipicche
04/07/2012 Show to everybody Allenamento 04-07-12 alle 05:28 48.22 Km 230 m 01:52:58 25.61 Km\h Duedipicche
03/07/2012 Show to everybody Allenamento 03-07-12 alle 05:32 46.08 Km 206 m 01:44:07 26.55 Km\h Duedipicche
02/07/2012 Show to everybody Allenamento 02-07-12 alle 05:30 46.7 Km 197 m 01:43:21 27.11 Km\h Duedipicche
29/06/2012 Show to everybody Allenamento 29-06-12 alle 05:33 79.34 Km 470 m 02:58:55 26.61 Km\h Duedipicche
27/06/2012 Show to everybody Allenamento 27-06-12 alle 05:21 52.99 Km 322 m 02:04:44 25.49 Km\h Duedipicche
26/06/2012 Show to everybody Allenamento 26-06-12 alle 15:28 23.11 Km 108 m 00:57:54 23.94 Km\h Duedipicche
26/06/2012 Show to everybody Allenamento 26-06-12 alle 05:32 22.65 Km 76 m 00:52:27 25.91 Km\h Duedipicche

Show previous years trainings
This user's bikes.
Duedipicche 72 3310.84 Km 22433 m 125:55:58 26.28 Km/h
cannondale super6 0 0 Km 0 m 00:00:00 0 Km/h

4 points
Kilometers
0
Vertical gain
0
Rank:598

Watch ranking »

 

Bike name

Delete this bike?

Now you follow this users and you can compare your trainings

If you stop following this users you will not be able to compare your trainings with his


bdc-forum.it | 2012-2020 Training Camp v.1.0.15